createdAt,value
2023-04-01T00:02:24.413Z,4.45
2023-04-01T00:04:51.067Z,4.33
2023-04-01T00:07:17.546Z,4.00
2023-04-01T00:09:43.964Z,3.85
2023-04-01T00:12:10.657Z,4.05
2023-04-01T00:14:38.191Z,3.92
2023-04-01T00:17:04.881Z,3.77
2023-04-01T00:19:32.850Z,4.28
2023-04-01T00:21:59.653Z,4.60
2023-04-01T00:24:26.164Z,4.97
2023-04-01T00:26:52.573Z,4.72
2023-04-01T00:29:18.963Z,4.23
2023-04-01T00:31:45.635Z,4.03
2023-04-01T00:34:13.094Z,4.07
2023-04-01T00:36:39.576Z,3.65
2023-04-01T00:39:06.011Z,5.13
2023-04-01T00:41:32.459Z,4.17
2023-04-01T00:44:21.806Z,4.22
2023-04-01T00:46:48.336Z,4.40
2023-04-01T00:49:18.555Z,5.20
2023-04-01T00:51:47.175Z,4.55
2023-04-01T00:54:14.676Z,5.23
2023-04-01T00:56:51.283Z,4.47
2023-04-01T00:59:24.604Z,4.95
2023-04-01T01:01:51.474Z,4.18
2023-04-01T01:04:33.479Z,4.38
2023-04-01T01:07:02.556Z,3.47
2023-04-01T01:10:03.537Z,3.42
2023-04-01T01:12:46.034Z,4.43
2023-04-01T01:15:17.071Z,4.30
2023-04-01T01:18:05.282Z,4.40
2023-04-01T01:20:49.637Z,4.07
2023-04-01T01:23:33.888Z,3.70
2023-04-01T01:26:00.385Z,4.50
2023-04-01T01:28:45.707Z,4.68
2023-04-01T01:31:37.710Z,4.85
2023-04-01T01:34:42.496Z,5.10
2023-04-01T01:37:16.468Z,3.13
2023-04-01T01:39:46.082Z,4.03
2023-04-01T01:42:16.178Z,2.75
2023-04-01T01:44:46.424Z,2.97
2023-04-01T01:47:14.759Z,2.37
2023-04-01T01:49:44.209Z,2.08
2023-04-01T01:52:11.326Z,2.42
2023-04-01T01:54:37.753Z,1.50
2023-04-01T01:57:08.252Z,2.08
2023-04-01T01:59:38.470Z,1.80
2023-04-01T02:02:08.987Z,1.80
2023-04-01T02:04:40.549Z,1.52
2023-04-01T02:07:31.612Z,1.52
2023-04-01T02:09:58.136Z,1.33
2023-04-01T02:12:25.385Z,1.80
2023-04-01T02:14:58.200Z,1.35
2023-04-01T02:17:27.649Z,1.20
2023-04-01T02:20:00.292Z,1.10
2023-04-01T02:22:30.543Z,1.02
2023-04-01T02:25:06.053Z,1.20
2023-04-01T02:27:32.934Z,1.05
2023-04-01T02:29:59.686Z,0.98
2023-04-01T02:32:27.577Z,1.17
2023-04-01T02:34:54.758Z,1.20
2023-04-01T02:37:21.705Z,1.10
2023-04-01T02:39:48.164Z,1.35
2023-04-01T02:42:15.536Z,1.50
2023-04-01T02:44:42.021Z,1.30
2023-04-01T02:47:08.488Z,1.52
2023-04-01T02:49:34.972Z,1.50
2023-04-01T02:52:01.486Z,1.77
2023-04-01T02:54:27.914Z,1.58
2023-04-01T02:56:54.367Z,1.88
2023-04-01T02:59:20.986Z,1.83
2023-04-01T03:01:47.371Z,1.40
2023-04-01T03:04:13.790Z,1.33
2023-04-01T03:06:40.353Z,1.48
2023-04-01T03:09:06.749Z,1.40
2023-04-01T03:11:33.139Z,1.50
2023-04-01T03:13:59.570Z,1.37
2023-04-01T03:16:26.118Z,1.30
2023-04-01T03:18:53.601Z,1.73
2023-04-01T03:21:23.252Z,1.08
2023-04-01T03:23:50.293Z,0.77
2023-04-01T03:26:17.277Z,0.70
2023-04-01T03:28:44.197Z,0.88
2023-04-01T03:31:11.484Z,0.90
2023-04-01T03:33:38.045Z,1.10
2023-04-01T03:36:07.309Z,0.93
2023-04-01T03:38:37.176Z,1.13
2023-04-01T03:41:03.742Z,1.38
2023-04-01T03:43:30.441Z,1.45
2023-04-01T03:45:58.792Z,1.60
2023-04-01T03:48:26.640Z,1.50
2023-04-01T03:50:53.156Z,1.80
2023-04-01T03:53:19.609Z,1.70
2023-04-01T03:55:46.319Z,1.50
2023-04-01T03:58:12.777Z,2.20
2023-04-01T04:00:39.377Z,2.03
2023-04-01T04:03:07.921Z,1.93
2023-04-01T04:05:34.733Z,2.40
2023-04-01T04:08:01.538Z,2.60
2023-04-01T04:10:30.115Z,2.25
2023-04-01T04:12:56.976Z,2.85
2023-04-01T04:15:23.951Z,2.20
2023-04-01T04:17:50.480Z,2.67
2023-04-01T04:20:17.080Z,2.70
2023-04-01T04:22:43.530Z,2.53
2023-04-01T04:25:10.354Z,2.40
2023-04-01T04:27:37.005Z,2.27
2023-04-01T04:30:04.445Z,1.92
2023-04-01T04:32:31.353Z,2.00
2023-04-01T04:34:57.819Z,2.38
2023-04-01T04:37:24.310Z,1.70
2023-04-01T04:39:50.880Z,2.17
2023-04-01T04:42:17.285Z,1.95
2023-04-01T04:44:43.677Z,2.25
2023-04-01T04:47:10.486Z,2.30
2023-04-01T04:49:36.989Z,2.30
2023-04-01T04:52:03.520Z,2.20
2023-04-01T04:54:30.453Z,2.60
2023-04-01T04:56:56.973Z,2.10
2023-04-01T04:59:23.429Z,2.55
2023-04-01T05:01:49.920Z,2.30
2023-04-01T05:04:16.572Z,1.73
2023-04-01T05:06:45.736Z,1.80
2023-04-01T05:09:12.447Z,1.92
2023-04-01T05:11:38.928Z,1.75
2023-04-01T05:14:05.372Z,1.50
2023-04-01T05:16:32.474Z,1.53
2023-04-01T05:18:58.964Z,1.75
2023-04-01T05:21:25.535Z,1.70
2023-04-01T05:23:51.914Z,1.80
2023-04-01T05:26:18.309Z,1.85
2023-04-01T05:28:44.729Z,2.40
2023-04-01T05:31:11.322Z,2.03
2023-04-01T05:33:37.972Z,2.03
2023-04-01T05:36:12.779Z,2.20
2023-04-01T05:38:39.764Z,2.30
2023-04-01T05:41:06.279Z,2.23
2023-04-01T05:43:32.738Z,1.70
2023-04-01T05:45:59.379Z,1.60
2023-04-01T05:48:25.877Z,1.92
2023-04-01T05:50:52.309Z,1.40
2023-04-01T05:53:18.714Z,1.40
2023-04-01T05:55:45.164Z,1.52
2023-04-01T05:58:11.686Z,1.30
2023-04-01T06:00:39.610Z,1.10
2023-04-01T06:03:06.218Z,0.70
2023-04-01T06:05:40.727Z,0.87
2023-04-01T06:08:17.205Z,0.93
2023-04-01T06:11:14.545Z,0.95
2023-04-01T06:14:08.387Z,0.90
2023-04-01T06:17:02.729Z,0.88
2023-04-01T06:19:50.601Z,1.27
2023-04-01T06:22:28.555Z,1.52
2023-04-01T06:25:16.651Z,0.80
2023-04-01T06:28:04.176Z,1.10
2023-04-01T06:30:33.508Z,1.02
2023-04-01T06:33:06.443Z,0.87
2023-04-01T06:35:44.963Z,1.17
2023-04-01T06:38:21.518Z,1.40
2023-04-01T06:41:12.839Z,1.33
2023-04-01T06:44:08.604Z,1.40
2023-04-01T06:47:02.671Z,0.93
2023-04-01T06:49:47.644Z,0.85
2023-04-01T06:52:34.806Z,0.70
2023-04-01T06:55:22.978Z,0.73
2023-04-01T06:57:53.990Z,0.90
2023-04-01T07:00:25.761Z,0.73
2023-04-01T07:03:12.000Z,0.73
2023-04-01T07:05:38.767Z,0.82
2023-04-01T07:08:14.298Z,0.55
2023-04-01T07:10:48.817Z,0.75
2023-04-01T07:13:29.372Z,0.77
2023-04-01T07:16:05.960Z,1.00
2023-04-01T07:18:53.858Z,0.68
2023-04-01T07:21:31.941Z,1.10
2023-04-01T07:24:06.561Z,1.17
2023-04-01T07:26:33.272Z,0.90
2023-04-01T07:28:59.637Z,1.05
2023-04-01T07:32:00.437Z,1.60
2023-04-01T07:34:43.177Z,1.27
2023-04-01T07:37:18.055Z,1.75
2023-04-01T07:40:03.421Z,1.80
2023-04-01T07:43:02.964Z,1.50
2023-04-01T07:45:43.016Z,1.33
2023-04-01T07:48:28.104Z,1.40
2023-04-01T07:51:16.474Z,1.50
2023-04-01T07:54:12.036Z,1.43
2023-04-01T07:56:50.451Z,1.52
2023-04-01T07:59:37.060Z,1.58
2023-04-01T08:02:03.385Z,1.65
2023-04-01T08:04:54.713Z,1.98
2023-04-01T08:07:31.203Z,1.67
2023-04-01T08:10:10.637Z,2.25
2023-04-01T08:12:46.333Z,2.00
2023-04-01T08:15:33.524Z,1.80
2023-04-01T08:18:04.812Z,1.95
2023-04-01T08:21:00.341Z,1.80
2023-04-01T08:23:41.636Z,2.10
2023-04-01T08:26:35.350Z,1.80
2023-04-01T08:29:07.479Z,2.03
2023-04-01T08:31:38.851Z,1.92
2023-04-01T08:34:13.622Z,2.10
2023-04-01T08:36:44.368Z,2.28
2023-04-01T08:39:16.639Z,2.55
2023-04-01T08:42:07.894Z,2.88
2023-04-01T08:45:08.414Z,2.28
2023-04-01T08:47:43.917Z,3.07
2023-04-01T08:50:19.392Z,2.60
2023-04-01T08:53:07.463Z,2.65
2023-04-01T08:55:39.962Z,2.58
2023-04-01T08:58:35.487Z,2.72
2023-04-01T09:01:20.535Z,2.70
2023-04-01T09:04:14.440Z,2.55
2023-04-01T09:07:04.052Z,2.45
2023-04-01T09:09:33.482Z,2.38
2023-04-01T09:12:17.983Z,2.53
2023-04-01T09:15:24.930Z,2.60
2023-04-01T09:18:16.285Z,2.25
2023-04-01T09:20:54.750Z,2.17
2023-04-01T09:23:38.688Z,2.50
2023-04-01T09:26:43.450Z,2.08
2023-04-01T09:29:38.251Z,1.60
2023-04-01T09:32:25.992Z,1.60
2023-04-01T09:35:05.890Z,1.77
2023-04-01T09:37:38.685Z,1.83
2023-04-01T09:40:35.675Z,2.00
2023-04-01T09:43:25.974Z,2.07
2023-04-01T09:46:11.453Z,2.22
2023-04-01T09:48:59.173Z,2.22
2023-04-01T09:51:40.911Z,2.67
2023-04-01T09:54:33.056Z,2.67
2023-04-01T09:57:26.811Z,2.57
2023-04-01T10:00:36.158Z,2.88
2023-04-01T10:03:29.788Z,3.08
2023-04-01T10:06:14.887Z,3.47
2023-04-01T10:09:18.833Z,2.95
2023-04-01T10:12:17.434Z,2.80
2023-04-01T10:15:13.190Z,3.00
2023-04-01T10:17:42.676Z,2.80
2023-04-01T10:20:40.013Z,2.85
2023-04-01T10:23:48.529Z,3.08
2023-04-01T10:26:57.870Z,2.97
2023-04-01T10:29:42.601Z,3.10
2023-04-01T10:32:31.148Z,2.92
2023-04-01T10:35:22.449Z,3.03
2023-04-01T10:38:27.993Z,2.80
2023-04-01T10:41:19.097Z,2.37
2023-04-01T10:44:32.276Z,2.72
2023-04-01T10:47:04.778Z,1.98
2023-04-01T10:49:52.982Z,2.67
2023-04-01T10:52:44.403Z,2.25
2023-04-01T10:55:28.426Z,2.03
2023-04-01T10:58:17.427Z,1.60
2023-04-01T11:00:56.413Z,1.73
2023-04-01T11:03:59.674Z,1.60
2023-04-01T11:06:44.434Z,1.70
2023-04-01T11:09:24.690Z,1.90
2023-04-01T11:12:34.868Z,1.55
2023-04-01T11:15:23.081Z,1.23
2023-04-01T11:17:55.783Z,1.10
2023-04-01T11:20:31.225Z,0.60
2023-04-01T11:23:16.231Z,0.93
2023-04-01T11:26:04.801Z,0.68
2023-04-01T11:28:55.489Z,0.80
2023-04-01T11:31:40.636Z,0.60
2023-04-01T11:34:37.907Z,0.65
2023-04-01T11:37:19.633Z,0.80
2023-04-01T11:40:25.725Z,0.43
2023-04-01T11:43:07.800Z,0.30
2023-04-01T11:45:45.856Z,0.30
2023-04-01T11:48:20.967Z,0.30
2023-04-01T11:51:04.404Z,0.23
2023-04-01T11:53:49.255Z,0.30
2023-04-01T11:56:27.925Z,0.30
2023-04-01T11:59:41.158Z,0.30
2023-04-01T12:02:58.433Z,0.30
2023-04-01T12:05:44.289Z,0.60
2023-04-01T12:08:16.166Z,0.40
2023-04-01T12:11:17.154Z,0.60
2023-04-01T12:14:11.497Z,0.80
2023-04-01T12:16:58.930Z,0.93
2023-04-01T12:19:49.425Z,1.30
2023-04-01T12:22:46.581Z,2.15
2023-04-01T12:25:23.086Z,1.95
2023-04-01T12:28:03.555Z,2.20
2023-04-01T12:30:51.626Z,2.40
2023-04-01T12:33:38.595Z,2.30
2023-04-01T12:36:24.881Z,2.67
2023-04-01T12:39:21.186Z,3.08
2023-04-01T12:41:58.529Z,3.15
2023-04-01T12:44:38.513Z,3.40
2023-04-01T12:47:23.814Z,4.00
2023-04-01T12:50:12.989Z,4.00
2023-04-01T12:53:11.360Z,3.70
2023-04-01T12:55:45.445Z,4.10
2023-04-01T12:58:23.934Z,4.13
2023-04-01T13:01:17.327Z,3.80
2023-04-01T13:03:43.829Z,4.15
2023-04-01T13:06:44.159Z,3.95
2023-04-01T13:09:17.879Z,3.75
2023-04-01T13:12:15.498Z,3.42
2023-04-01T13:14:53.635Z,3.70
2023-04-01T13:17:35.550Z,3.80
2023-04-01T13:20:10.976Z,3.38
2023-04-01T13:23:25.318Z,2.75
2023-04-01T13:26:14.605Z,2.03
2023-04-01T13:28:47.781Z,2.07
2023-04-01T13:31:47.168Z,2.03
2023-04-01T13:34:32.202Z,2.10
2023-04-01T13:37:26.247Z,2.20
2023-04-01T13:40:01.755Z,1.95
2023-04-01T13:42:34.360Z,1.90
2023-04-01T13:45:18.054Z,1.30
2023-04-01T13:48:13.548Z,1.60
2023-04-01T13:51:03.125Z,1.30
2023-04-01T13:53:56.875Z,1.17
2023-04-01T13:56:43.289Z,1.27
2023-04-01T13:59:47.610Z,1.10
2023-04-01T14:02:20.409Z,1.02
2023-04-01T14:04:59.019Z,1.65
2023-04-01T14:07:47.280Z,1.25
2023-04-01T14:10:19.790Z,1.20
2023-04-01T14:13:25.337Z,1.83
2023-04-01T14:16:08.944Z,1.73
2023-04-01T14:18:47.526Z,2.45
2023-04-01T14:21:30.201Z,2.25
2023-04-01T14:24:26.134Z,2.27
2023-04-01T14:27:14.982Z,2.17
2023-04-01T14:30:37.446Z,1.83
2023-04-01T14:33:45.500Z,1.80
2023-04-01T14:36:32.764Z,1.60
2023-04-01T14:39:36.773Z,2.00
2023-04-01T14:42:24.614Z,1.52
2023-04-01T14:45:09.212Z,1.77
2023-04-01T14:47:47.191Z,1.40
2023-04-01T14:50:17.792Z,1.55
2023-04-01T14:52:57.884Z,2.03
2023-04-01T14:55:42.245Z,1.60
2023-04-01T14:58:20.160Z,1.42
2023-04-01T15:00:46.522Z,1.77
2023-04-01T15:03:18.900Z,1.55
2023-04-01T15:06:12.663Z,1.60
2023-04-01T15:08:50.886Z,1.70
2023-04-01T15:11:27.920Z,1.90
2023-04-01T15:14:02.424Z,2.67
2023-04-01T15:16:46.860Z,1.95
2023-04-01T15:19:34.616Z,2.20
2023-04-01T15:22:30.897Z,1.95
2023-04-01T15:25:06.507Z,1.95
2023-04-01T15:27:57.042Z,1.40
2023-04-01T15:30:23.791Z,1.50
2023-04-01T15:32:50.360Z,1.60
2023-04-01T15:35:29.872Z,1.67
2023-04-01T15:38:20.969Z,1.13
2023-04-01T15:40:53.017Z,1.60
2023-04-01T15:43:35.081Z,1.70
2023-04-01T15:46:23.853Z,1.60
2023-04-01T15:49:25.639Z,1.25
2023-04-01T15:52:07.458Z,1.33
2023-04-01T15:54:49.000Z,1.30
2023-04-01T15:57:33.797Z,1.15
2023-04-01T16:00:34.044Z,1.40
2023-04-01T16:03:25.106Z,1.38
2023-04-01T16:06:15.937Z,1.15
2023-04-01T16:08:59.768Z,1.17
2023-04-01T16:11:30.375Z,1.42
2023-04-01T16:14:07.483Z,1.47
2023-04-01T16:17:03.001Z,1.52
2023-04-01T16:19:45.262Z,1.45
2023-04-01T16:22:31.906Z,1.58
2023-04-01T16:25:16.946Z,1.80
2023-04-01T16:27:54.823Z,1.77
2023-04-01T16:30:49.499Z,1.73
2023-04-01T16:33:50.087Z,1.63
2023-04-01T16:36:31.727Z,1.80
2023-04-01T16:39:22.331Z,1.73
2023-04-01T16:41:58.944Z,1.97
2023-04-01T16:44:28.262Z,2.08
2023-04-01T16:47:09.398Z,1.70
2023-04-01T16:49:45.500Z,2.28
2023-04-01T16:52:11.963Z,1.90
2023-04-01T16:54:59.253Z,1.57
2023-04-01T16:57:47.462Z,2.15
2023-04-01T17:00:17.998Z,1.65
2023-04-01T17:02:52.511Z,1.90
2023-04-01T17:05:21.846Z,1.85
2023-04-01T17:07:51.489Z,1.97
2023-04-01T17:10:33.125Z,1.70
2023-04-01T17:13:21.044Z,1.70
2023-04-01T17:16:07.075Z,1.65
2023-04-01T17:18:49.042Z,1.73
2023-04-01T17:21:54.759Z,1.57
2023-04-01T17:24:47.241Z,1.70
2023-04-01T17:27:29.628Z,1.40
2023-04-01T17:30:14.189Z,1.42
2023-04-01T17:33:19.454Z,1.88
2023-04-01T17:35:59.426Z,1.47
2023-04-01T17:38:59.926Z,1.35
2023-04-01T17:41:52.302Z,1.50
2023-04-01T17:45:13.041Z,1.67
2023-04-01T17:47:56.702Z,1.50
2023-04-01T17:51:09.084Z,1.63
2023-04-01T17:53:51.341Z,1.50
2023-04-01T17:56:33.948Z,1.80
2023-04-01T17:59:27.904Z,1.65
2023-04-01T18:02:02.263Z,1.67
2023-04-01T18:04:43.936Z,1.43
2023-04-01T18:07:16.299Z,1.60
2023-04-01T18:10:01.489Z,1.60
2023-04-01T18:12:46.715Z,1.42
2023-04-01T18:15:28.382Z,1.73
2023-04-01T18:18:26.181Z,1.83
2023-04-01T18:21:11.964Z,1.30
2023-04-01T18:23:42.908Z,2.13
2023-04-01T18:26:24.182Z,1.98
2023-04-01T18:28:59.723Z,1.98
2023-04-01T18:31:33.782Z,2.13
2023-04-01T18:34:28.281Z,2.33
2023-04-01T18:37:00.689Z,1.77
2023-04-01T18:39:50.701Z,2.10
2023-04-01T18:42:35.901Z,2.17
2023-04-01T18:45:27.374Z,2.47
2023-04-01T18:48:07.871Z,2.15
2023-04-01T18:50:58.757Z,2.13
2023-04-01T18:53:36.022Z,2.22
2023-04-01T18:56:06.216Z,2.63
2023-04-01T18:58:46.057Z,2.10
2023-04-01T19:01:24.620Z,2.20
2023-04-01T19:04:01.404Z,2.10
2023-04-01T19:06:59.806Z,2.00
2023-04-01T19:09:45.059Z,1.60
2023-04-01T19:12:31.677Z,1.93
2023-04-01T19:15:11.730Z,2.10
2023-04-01T19:18:03.135Z,1.70
2023-04-01T19:20:58.367Z,1.80
2023-04-01T19:23:54.404Z,1.80
2023-04-01T19:26:20.763Z,2.20
2023-04-01T19:29:02.006Z,1.88
2023-04-01T19:31:41.252Z,2.00
2023-04-01T19:34:20.059Z,2.00
2023-04-01T19:36:53.265Z,2.00
2023-04-01T19:40:07.090Z,2.23
2023-04-01T19:42:59.827Z,2.17
2023-04-01T19:45:42.318Z,2.13
2023-04-01T19:48:30.756Z,2.42
2023-04-01T19:51:05.836Z,2.10
2023-04-01T19:54:02.208Z,2.07
2023-04-01T19:56:42.280Z,2.10
2023-04-01T19:59:35.837Z,2.40
2023-04-01T20:02:34.181Z,3.13
2023-04-01T20:05:16.957Z,2.60
2023-04-01T20:07:52.639Z,2.83
2023-04-01T20:10:30.435Z,3.10
2023-04-01T20:13:46.815Z,3.28
2023-04-01T20:16:16.318Z,3.42
2023-04-01T20:18:59.983Z,3.22
2023-04-01T20:21:41.853Z,3.30
2023-04-01T20:24:14.020Z,3.38
2023-04-01T20:26:46.830Z,3.30
2023-04-01T20:29:37.881Z,3.53
2023-04-01T20:32:23.631Z,4.03
2023-04-01T20:35:10.261Z,3.60
2023-04-01T20:37:43.143Z,3.80
2023-04-01T20:40:27.449Z,4.10
2023-04-01T20:43:05.734Z,3.70
2023-04-01T20:45:45.147Z,3.50
2023-04-01T20:48:12.001Z,3.47
2023-04-01T20:50:41.371Z,3.55
2023-04-01T20:53:59.463Z,3.53
2023-04-01T20:56:40.382Z,3.25
2023-04-01T20:59:20.386Z,3.58
2023-04-01T21:02:06.581Z,3.27
2023-04-01T21:05:11.516Z,3.28
2023-04-01T21:07:56.476Z,3.25
2023-04-01T21:11:02.517Z,3.40
2023-04-01T21:13:59.462Z,3.47
2023-04-01T21:16:50.430Z,3.13
2023-04-01T21:19:57.506Z,3.40
2023-04-01T21:22:38.187Z,2.97
2023-04-01T21:25:22.217Z,3.20
2023-04-01T21:28:25.949Z,2.88
2023-04-01T21:31:21.496Z,2.90
2023-04-01T21:33:59.426Z,2.97
2023-04-01T21:36:35.539Z,2.80
2023-04-01T21:39:29.547Z,3.20
2023-04-01T21:42:09.120Z,2.88
2023-04-01T21:44:40.402Z,2.93
2023-04-01T21:47:54.961Z,2.92
2023-04-01T21:50:43.205Z,2.83
2023-04-01T21:53:39.400Z,2.90
2023-04-01T21:56:27.972Z,2.75
2023-04-01T21:59:12.765Z,3.13
2023-04-01T22:02:16.885Z,2.75
2023-04-01T22:04:43.283Z,3.03
2023-04-01T22:07:09.617Z,2.75
2023-04-01T22:10:17.940Z,3.03
2023-04-01T22:13:09.232Z,3.17
2023-04-01T22:16:07.620Z,3.20
2023-04-01T22:18:48.189Z,3.00
2023-04-01T22:21:41.596Z,3.30
2023-04-01T22:24:18.285Z,3.05
2023-04-01T22:27:21.669Z,2.93
2023-04-01T22:30:16.755Z,2.75
2023-04-01T22:32:47.535Z,3.03
2023-04-01T22:35:20.217Z,3.03
2023-04-01T22:38:24.159Z,2.80
2023-04-01T22:41:06.603Z,2.70
2023-04-01T22:43:39.372Z,3.28
2023-04-01T22:46:33.635Z,4.20
2023-04-01T22:49:17.584Z,3.70
2023-04-01T22:51:50.918Z,3.92
2023-04-01T22:54:41.583Z,4.07
2023-04-01T22:57:15.188Z,3.47
2023-04-01T22:59:49.567Z,3.92
2023-04-01T23:02:39.016Z,4.10
2023-04-01T23:05:11.818Z,4.20
2023-04-01T23:07:54.264Z,3.73
2023-04-01T23:10:35.115Z,3.92
2023-04-01T23:13:03.871Z,4.18
2023-04-01T23:15:30.771Z,4.35
2023-04-01T23:18:09.972Z,3.95
2023-04-01T23:20:54.436Z,4.27
2023-04-01T23:23:35.345Z,4.70
2023-04-01T23:26:10.898Z,4.45
2023-04-01T23:28:49.921Z,4.55
2023-04-01T23:31:40.670Z,4.63
2023-04-01T23:34:13.234Z,4.63
2023-04-01T23:36:43.172Z,4.10
2023-04-01T23:39:25.082Z,4.65
2023-04-01T23:41:54.191Z,4.45
2023-04-01T23:44:21.753Z,4.75
2023-04-01T23:46:49.945Z,4.57
2023-04-01T23:49:24.344Z,4.90
2023-04-01T23:51:57.903Z,5.10
2023-04-01T23:54:33.931Z,4.68
2023-04-01T23:57:07.561Z,4.93
2023-04-01T23:59:36.897Z,5.50
